Time;durP1;ratioP1;P1;durP2;ratioP2;P2;SDS_P1;SDS_P2;PMS_P1;PMS_P2;Temp;Humidity;BMP_temperature;BMP_pressure;BME280_temperature;BME280_humidity;BME280_pressure;Samples;Min_cycle;Max_cycle;Signal;HPM_P1;HPM_P2
2023/05/24 00:01:36;;;;;;;;;;;;;;;21.61;36.91;101095.88;6184009;23;19915;-60
2023/05/24 00:04:02;;;;;;;;;;;;;;;21.56;36.74;101093.91;6180819;23;19913;-61
2023/05/24 00:06:27;;;;;;;;;;;;;;;21.50;36.48;101089.44;6182008;23;20454;-59
2023/05/24 00:08:53;;;;;;;;;;;;;;;21.48;36.58;101097.06;6181571;23;19908;-62
2023/05/24 00:11:21;;;;;;;;;;;;;;;21.49;36.83;101098.72;6182525;23;19908;-58
2023/05/24 00:13:46;;;;;;;;;;;;;;;21.54;36.68;101100.69;6183495;23;20238;-61
2023/05/24 00:16:11;;;;;;;;;;;;;;;21.61;36.51;101104.91;6181926;23;19954;-61
2023/05/24 00:18:39;;;;;;;;;;;;;;;21.65;36.71;101097.03;6182931;23;19908;-61
2023/05/24 00:21:11;;;;;;;;;;;;;;;21.67;36.97;101104.97;6157424;23;19912;-63
2023/05/24 00:23:40;;;;;;;;;;;;;;;21.66;36.94;101104.16;6183237;23;19913;-61
2023/05/24 00:26:06;;;;;;;;;;;;;;;21.69;36.71;101102.81;6183149;23;20001;-61
2023/05/24 00:28:32;;;;;;;;;;;;;;;21.70;36.83;101102.56;6180156;23;19916;-63
2023/05/24 00:30:57;;;;;;;;;;;;;;;21.76;36.56;101098.81;6183486;23;19918;-61
2023/05/24 00:33:23;;;;;;;;;;;;;;;21.76;36.50;101096.06;6179869;23;19915;-62
2023/05/24 00:35:50;;;;;;;;;;;;;;;21.70;36.76;101091.63;6181777;23;20378;-62
2023/05/24 00:38:15;;;;;;;;;;;;;;;21.64;37.14;101098.13;6182607;23;19912;-60
2023/05/24 00:40:41;;;;;;;;;;;;;;;21.61;36.99;101087.69;6180139;23;19908;-60
2023/05/24 00:43:06;;;;;;;;;;;;;;;21.61;36.97;101093.13;6182455;23;20019;-60
2023/05/24 00:45:31;;;;;;;;;;;;;;;21.61;37.21;101098.59;6182178;23;19915;-58
2023/05/24 00:47:56;;;;;;;;;;;;;;;21.59;36.95;101090.66;6183016;23;19929;-61
2023/05/24 00:50:25;;;;;;;;;;;;;;;21.61;36.94;101096.69;6184047;23;19977;-60
2023/05/24 00:52:50;;;;;;;;;;;;;;;21.63;37.04;101093.72;6181927;23;19954;-60
2023/05/24 00:55:15;;;;;;;;;;;;;;;21.59;37.37;101098.84;6181642;23;19991;-62
2023/05/24 00:57:41;;;;;;;;;;;;;;;21.61;37.04;101104.91;6183028;23;19967;-61
2023/05/24 01:00:07;;;;;;;;;;;;;;;21.60;37.08;101102.41;6181151;23;19912;-60
2023/05/24 01:02:33;;;;;;;;;;;;;;;21.60;36.73;101106.00;6181265;23;19909;-61
2023/05/24 01:04:59;;;;;;;;;;;;;;;21.61;36.98;101098.59;6177682;23;19912;-61
2023/05/24 01:07:29;;;;;;;;;;;;;;;21.64;36.42;101096.19;6178265;23;19962;-60
2023/05/24 01:10:05;;;;;;;;;;;;;;;21.68;36.80;101098.44;6182836;23;19912;-61
2023/05/24 01:12:49;;;;;;;;;;;;;;;21.68;37.42;101090.25;6182316;23;19987;-59
2023/05/24 01:15:23;;;;;;;;;;;;;;;21.69;36.94;101094.59;6183153;23;19909;-61
2023/05/24 01:18:07;;;;;;;;;;;;;;;21.72;36.72;101094.94;6181226;23;20007;-60
2023/05/24 01:20:33;;;;;;;;;;;;;;;21.73;36.68;101093.88;6182100;23;19908;-61
2023/05/24 01:23:06;;;;;;;;;;;;;;;21.76;36.58;101098.81;6181868;23;19919;-62
2023/05/24 01:25:34;;;;;;;;;;;;;;;21.76;36.62;101095.25;6183452;23;19916;-61
2023/05/24 01:28:00;;;;;;;;;;;;;;;21.77;36.40;101089.53;6183304;23;19916;-61
2023/05/24 01:30:26;;;;;;;;;;;;;;;21.74;36.19;101083.75;6183744;23;20000;-61
2023/05/24 01:32:51;;;;;;;;;;;;;;;21.69;36.11;101087.22;6182933;23;19963;-61
2023/05/24 01:35:17;;;;;;;;;;;;;;;21.66;36.65;101082.28;6183150;23;19916;-61
2023/05/24 01:37:42;;;;;;;;;;;;;;;21.63;36.80;101086.34;6181857;23;20368;-61
2023/05/24 01:40:07;;;;;;;;;;;;;;;21.70;36.61;101083.44;6184822;23;19909;-60
2023/05/24 01:42:33;;;;;;;;;;;;;;;21.69;36.61;101081.75;6182768;23;19943;-61
2023/05/24 01:45:07;;;;;;;;;;;;;;;21.67;36.38;101083.91;6184333;23;19962;-61
2023/05/24 01:47:51;;;;;;;;;;;;;;;21.67;36.55;101083.09;6179928;23;20234;-62
2023/05/24 01:50:29;;;;;;;;;;;;;;;21.60;36.49;101095.06;6184769;23;19912;-61
2023/05/24 01:52:57;;;;;;;;;;;;;;;21.62;36.67;101083.88;6183228;23;20264;-61
2023/05/24 01:55:25;;;;;;;;;;;;;;;21.60;36.13;101078.66;6183906;23;19908;-60
2023/05/24 01:57:53;;;;;;;;;;;;;;;21.62;36.20;101072.94;6184825;23;19947;-60
2023/05/24 02:00:20;;;;;;;;;;;;;;;21.63;36.52;101080.88;6182597;23;20373;-62
2023/05/24 02:02:46;;;;;;;;;;;;;;;21.62;36.26;101081.13;6182645;23;19908;-60
2023/05/24 02:05:11;;;;;;;;;;;;;;;21.64;36.90;101088.00;6181484;23;20340;-61
2023/05/24 02:07:37;;;;;;;;;;;;;;;21.63;36.60;101090.97;6184597;23;19913;-61
2023/05/24 02:10:02;;;;;;;;;;;;;;;21.61;36.49;101091.22;6185058;23;19915;-61
2023/05/24 02:12:28;;;;;;;;;;;;;;;21.60;36.22;101096.94;6182091;23;19988;-63
2023/05/24 02:14:53;;;;;;;;;;;;;;;21.60;36.77;101097.78;6183374;23;19934;-60
2023/05/24 02:17:18;;;;;;;;;;;;;;;21.59;36.57;101098.03;6182522;23;19908;-61
2023/05/24 02:19:44;;;;;;;;;;;;;;;21.60;36.45;101102.41;6183554;23;20222;-61
2023/05/24 02:22:09;;;;;;;;;;;;;;;21.59;36.12;101098.03;6184786;23;19915;-61
2023/05/24 02:24:36;;;;;;;;;;;;;;;21.60;36.51;101099.66;6182370;23;20316;-60
2023/05/24 02:27:02;;;;;;;;;;;;;;;21.65;36.32;101102.50;6183820;23;19913;-61
2023/05/24 02:29:27;;;;;;;;;;;;;;;21.63;36.00;101100.00;6158004;23;19908;-60
2023/05/24 02:31:55;;;;;;;;;;;;;;;21.61;35.85;101093.97;6182384;23;20294;-60
2023/05/24 02:34:22;;;;;;;;;;;;;;;21.63;36.22;101086.34;6181985;23;19995;-62
2023/05/24 02:36:47;;;;;;;;;;;;;;;21.60;36.41;101084.13;6181521;23;20361;-60
2023/05/24 02:39:13;;;;;;;;;;;;;;;21.64;35.93;101090.72;6181946;23;19912;-61
2023/05/24 02:41:38;;;;;;;;;;;;;;;21.67;35.84;101088.56;6184759;23;20051;-61
2023/05/24 02:44:04;;;;;;;;;;;;;;;21.64;36.37;101089.91;6182916;23;19908;-60
2023/05/24 02:46:29;;;;;;;;;;;;;;;21.61;35.97;101095.88;6182255;23;19909;-63
2023/05/24 02:48:54;;;;;;;;;;;;;;;21.61;36.12;101084.94;6155597;23;19962;-60
2023/05/24 02:51:20;;;;;;;;;;;;;;;21.61;36.01;101087.69;6184594;23;19914;-60
2023/05/24 02:53:45;;;;;;;;;;;;;;;21.64;36.26;101087.19;6183393;23;19995;-58
2023/05/24 02:56:12;;;;;;;;;;;;;;;21.62;36.52;101087.44;6181285;23;20277;-61
2023/05/24 02:58:39;;;;;;;;;;;;;;;21.63;36.11;101088.25;6185217;23;20289;-61
2023/05/24 03:01:06;;;;;;;;;;;;;;;21.65;36.20;101097.03;6183190;23;20246;-60
2023/05/24 03:03:31;;;;;;;;;;;;;;;21.65;36.40;101084.16;6183143;23;19917;-61
2023/05/24 03:05:56;;;;;;;;;;;;;;;21.71;36.05;101090.56;6181148;23;19947;-61
2023/05/24 03:08:22;;;;;;;;;;;;;;;21.73;36.72;101096.59;6182863;23;20397;-61
2023/05/24 03:10:47;;;;;;;;;;;;;;;21.74;36.64;101092.78;6157784;23;19915;-61
2023/05/24 03:13:12;;;;;;;;;;;;;;;21.71;36.47;101095.19;6183154;23;19916;-61
2023/05/24 03:15:38;;;;;;;;;;;;;;;21.73;36.18;101096.59;6180880;23;19908;-61
2023/05/24 03:18:03;;;;;;;;;;;;;;;21.76;36.04;101104.28;6181465;23;19908;-60
2023/05/24 03:20:28;;;;;;;;;;;;;;;21.78;35.80;101095.81;6181491;23;19915;-61
2023/05/24 03:22:53;;;;;;;;;;;;;;;21.80;36.44;101089.03;6130506;23;19919;-61
2023/05/24 03:25:19;;;;;;;;;;;;;;;21.85;35.85;101080.88;6180960;23;19908;-61
2023/05/24 03:27:44;;;;;;;;;;;;;;;21.85;36.21;101080.06;6182850;23;19975;-60
2023/05/24 03:30:10;;;;;;;;;;;;;;;21.83;35.97;101077.59;6182846;23;19912;-60
2023/05/24 03:32:35;;;;;;;;;;;;;;;21.88;36.23;101075.97;6183278;23;19932;-60
2023/05/24 03:35:01;;;;;;;;;;;;;;;21.88;36.52;101070.50;6183669;23;20289;-61
2023/05/24 03:37:27;;;;;;;;;;;;;;;21.92;36.35;101068.94;6178792;23;20397;-61
2023/05/24 03:39:52;;;;;;;;;;;;;;;21.99;36.70;101075.88;6183424;23;19908;-60
2023/05/24 03:42:18;;;;;;;;;;;;;;;22.06;35.97;101069.38;6183646;23;19994;-61
2023/05/24 03:44:43;;;;;;;;;;;;;;;22.11;36.26;101072.19;6179917;23;20026;-61
2023/05/24 03:47:08;;;;;;;;;;;;;;;22.14;36.04;101064.28;6183188;23;20214;-60
2023/05/24 03:49:34;;;;;;;;;;;;;;;22.20;36.04;101063.25;6180981;23;19908;-60
2023/05/24 03:51:59;;;;;;;;;;;;;;;22.27;36.37;101059.50;6182383;23;20238;-61
2023/05/24 03:54:24;;;;;;;;;;;;;;;22.28;36.35;101058.44;6183496;23;20312;-60
2023/05/24 03:56:52;;;;;;;;;;;;;;;22.33;36.17;101058.50;6181493;23;19908;-61
2023/05/24 03:59:17;;;;;;;;;;;;;;;22.35;35.66;101056.34;6181665;23;19908;-60
2023/05/24 04:01:42;;;;;;;;;;;;;;;22.34;35.78;101058.25;6182150;23;19912;-61
2023/05/24 04:04:08;;;;;;;;;;;;;;;22.35;35.89;101053.59;6181285;23;19912;-61
2023/05/24 04:06:35;;;;;;;;;;;;;;;22.42;35.79;101051.47;6181732;23;19935;-61
2023/05/24 04:09:03;;;;;;;;;;;;;;;22.45;36.44;101050.13;6181064;23;19909;-61
2023/05/24 04:11:29;;;;;;;;;;;;;;;22.54;35.93;101052.13;6183354;23;20300;-62
2023/05/24 04:13:55;;;;;;;;;;;;;;;22.60;35.19;101053.00;6181959;23;19950;-62
2023/05/24 04:16:22;;;;;;;;;;;;;;;22.65;35.21;101061.25;6183397;23;19908;-62
2023/05/24 04:18:48;;;;;;;;;;;;;;;22.78;35.31;101066.31;6182811;23;19939;-62
2023/05/24 04:21:13;;;;;;;;;;;;;;;22.81;35.70;101068.53;6181660;23;19935;-61
2023/05/24 04:23:38;;;;;;;;;;;;;;;22.88;35.43;101070.22;6183910;23;19919;-62
2023/05/24 04:26:04;;;;;;;;;;;;;;;22.92;34.70;101066.72;6182238;23;19932;-60
2023/05/24 04:28:30;;;;;;;;;;;;;;;22.97;34.44;101069.50;6182390;23;19935;-60
2023/05/24 04:30:56;;;;;;;;;;;;;;;22.97;34.77;101071.38;6183350;23;19923;-61
2023/05/24 04:33:22;;;;;;;;;;;;;;;22.92;34.74;101068.59;6182103;23;19908;-60
2023/05/24 04:35:52;;;;;;;;;;;;;;;22.90;35.10;101068.03;6181662;23;19921;-60
2023/05/24 04:38:18;;;;;;;;;;;;;;;22.81;34.26;101057.59;6181827;23;19908;-61
2023/05/24 04:40:43;;;;;;;;;;;;;;;22.70;34.84;101057.75;6180902;23;20218;-61
2023/05/24 04:43:10;;;;;;;;;;;;;;;22.56;35.58;101055.44;6182586;23;19979;-61
2023/05/24 04:45:36;;;;;;;;;;;;;;;22.47;35.02;101054.25;6154711;23;19908;-61
2023/05/24 04:48:01;;;;;;;;;;;;;;;22.40;35.51;101059.13;6183212;23;20364;-60
2023/05/24 04:50:27;;;;;;;;;;;;;;;22.38;35.83;101047.59;6181129;23;19912;-58
2023/05/24 04:52:52;;;;;;;;;;;;;;;22.31;35.84;101053.28;6182527;23;20384;-62
2023/05/24 04:55:20;;;;;;;;;;;;;;;22.29;35.85;101049.97;6180795;23;19931;-61
2023/05/24 04:57:45;;;;;;;;;;;;;;;22.28;35.49;101044.75;6180191;23;20230;-61
2023/05/24 05:00:11;;;;;;;;;;;;;;;22.28;35.94;101050.22;6157959;23;19912;-62
2023/05/24 05:02:36;;;;;;;;;;;;;;;22.30;36.14;101042.59;6183744;23;20345;-61
2023/05/24 05:05:01;;;;;;;;;;;;;;;22.27;35.78;101041.19;6182103;23;19908;-61
2023/05/24 05:07:27;;;;;;;;;;;;;;;22.37;35.91;101029.53;6185865;23;19912;-61
2023/05/24 05:09:52;;;;;;;;;;;;;;;22.35;35.55;101027.03;6182461;23;19975;-60
2023/05/24 05:12:17;;;;;;;;;;;;;;;22.36;35.36;101025.97;6182396;23;19919;-60
2023/05/24 05:14:43;;;;;;;;;;;;;;;22.27;35.33;101040.34;6182677;23;20306;-60
2023/05/24 05:17:08;;;;;;;;;;;;;;;22.29;35.71;101041.78;6184710;23;19915;-61
2023/05/24 05:19:33;;;;;;;;;;;;;;;22.34;35.42;101041.81;6186225;23;19924;-61
2023/05/24 05:21:59;;;;;;;;;;;;;;;22.38;35.47;101044.84;6184516;23;19991;-61
2023/05/24 05:24:24;;;;;;;;;;;;;;;22.38;35.64;101040.22;6186929;23;19955;-61
2023/05/24 05:26:49;;;;;;;;;;;;;;;22.35;35.47;101029.78;6187711;23;19923;-59
2023/05/24 05:29:15;;;;;;;;;;;;;;;22.33;35.60;101037.44;6184945;23;20015;-58
2023/05/24 05:31:40;;;;;;;;;;;;;;;22.34;35.72;101035.50;6186162;23;20137;-60
2023/05/24 05:34:08;;;;;;;;;;;;;;;22.28;35.61;101051.06;6181471;23;19908;-60
2023/05/24 05:36:39;;;;;;;;;;;;;;;22.07;36.03;101057.38;6184841;23;19920;-61
2023/05/24 05:39:04;;;;;;;;;;;;;;;22.01;36.14;101053.75;6183701;23;19966;-60
2023/05/24 05:41:30;;;;;;;;;;;;;;;22.07;35.99;101060.91;6184267;23;19908;-60
2023/05/24 05:43:55;;;;;;;;;;;;;;;22.19;36.13;101056.16;6183561;23;19998;-60
2023/05/24 05:46:21;;;;;;;;;;;;;;;22.16;35.90;101053.91;6180714;23;19917;-60
2023/05/24 05:48:46;;;;;;;;;;;;;;;22.12;36.01;101052.78;6185147;23;19938;-60
2023/05/24 05:51:12;;;;;;;;;;;;;;;22.09;35.92;101045.06;6185548;23;19932;-61
2023/05/24 05:53:37;;;;;;;;;;;;;;;22.09;35.81;101036.03;6182633;23;20314;-61
2023/05/24 05:56:02;;;;;;;;;;;;;;;21.96;36.03;101043.56;6156886;23;20398;-61
2023/05/24 05:58:28;;;;;;;;;;;;;;;21.91;36.17;101039.94;6183583;23;19963;-61
2023/05/24 06:00:53;;;;;;;;;;;;;;;21.90;35.88;101046.47;6184273;23;19908;-61
2023/05/24 06:03:18;;;;;;;;;;;;;;;21.84;36.18;101051.91;6180656;23;19932;-61
2023/05/24 06:05:43;;;;;;;;;;;;;;;21.96;36.39;101057.22;6179917;23;19908;-61
2023/05/24 06:08:09;;;;;;;;;;;;;;;22.11;36.10;101053.84;6184541;23;19912;-61
2023/05/24 06:10:34;;;;;;;;;;;;;;;22.07;36.15;101049.16;6182948;23;19912;-61
2023/05/24 06:13:00;;;;;;;;;;;;;;;22.23;35.91;101048.22;6184900;23;19978;-60
2023/05/24 06:15:26;;;;;;;;;;;;;;;22.27;35.85;101032.16;6183970;23;19912;-61
2023/05/24 06:17:51;;;;;;;;;;;;;;;22.33;35.70;101031.13;6183209;23;19947;-61
2023/05/24 06:20:17;;;;;;;;;;;;;;;22.39;35.63;101025.44;6183106;23;19908;-62
2023/05/24 06:22:42;;;;;;;;;;;;;;;22.44;35.72;101026.59;6182024;23;19982;-61
2023/05/24 06:25:08;;;;;;;;;;;;;;;22.51;35.54;101027.19;6181213;23;19908;-60
2023/05/24 06:27:33;;;;;;;;;;;;;;;22.57;35.38;101023.44;6182630;23;19913;-61
2023/05/24 06:29:58;;;;;;;;;;;;;;;22.62;35.50;101017.97;6182812;23;19916;-62
2023/05/24 06:32:23;;;;;;;;;;;;;;;22.61;35.34;101025.38;6184339;23;19916;-61
2023/05/24 06:34:49;;;;;;;;;;;;;;;22.65;34.74;101033.06;6180108;23;19920;-62
2023/05/24 06:37:14;;;;;;;;;;;;;;;22.60;35.38;101033.84;6181636;23;19952;-61
2023/05/24 06:39:40;;;;;;;;;;;;;;;22.49;35.14;101038.41;6185292;23;20068;-61
2023/05/24 06:42:05;;;;;;;;;;;;;;;22.48;35.14;101035.94;6183533;23;19936;-61
2023/05/24 06:44:33;;;;;;;;;;;;;;;22.53;35.47;101038.69;6183900;23;20325;-60
2023/05/24 06:46:59;;;;;;;;;;;;;;;22.65;35.17;101044.84;6178878;23;19938;-61
2023/05/24 06:49:24;;;;;;;;;;;;;;;22.72;35.15;101045.44;6184624;23;19959;-61
2023/05/24 06:51:50;;;;;;;;;;;;;;;22.80;35.53;101044.16;6183883;23;20318;-60
2023/05/24 06:54:15;;;;;;;;;;;;;;;22.88;35.20;101042.84;6180800;23;19915;-61
2023/05/24 06:56:40;;;;;;;;;;;;;;;22.86;34.72;101045.00;6184126;23;19994;-61
2023/05/24 06:59:07;;;;;;;;;;;;;;;22.82;34.62;101044.69;6155877;23;20237;-61
2023/05/24 07:01:33;;;;;;;;;;;;;;;22.74;34.52;101040.53;6182978;23;20242;-62
2023/05/24 07:03:58;;;;;;;;;;;;;;;22.84;34.04;101031.56;6182838;23;19919;-60
2023/05/24 07:06:23;;;;;;;;;;;;;;;23.06;34.68;101031.50;6182568;23;19944;-59
2023/05/24 07:08:49;;;;;;;;;;;;;;;22.98;32.90;101015.53;6182692;23;19916;-60
2023/05/24 07:11:14;;;;;;;;;;;;;;;22.98;33.17;101021.81;6184268;23;19915;-60
2023/05/24 07:13:40;;;;;;;;;;;;;;;22.91;33.24;101015.75;6183061;23;19908;-61
2023/05/24 07:16:05;;;;;;;;;;;;;;;23.17;32.66;101022.25;6184827;23;19958;-58
2023/05/24 07:18:31;;;;;;;;;;;;;;;23.24;32.18;101030.25;6181831;23;19913;-60
2023/05/24 07:20:56;;;;;;;;;;;;;;;23.35;33.66;101028.41;6180523;23;19912;-60
2023/05/24 07:23:21;;;;;;;;;;;;;;;23.59;33.50;101026.06;6153534;23;19995;-60
2023/05/24 07:25:47;;;;;;;;;;;;;;;23.65;32.48;101032.41;6182159;23;19940;-60
2023/05/24 07:28:14;;;;;;;;;;;;;;;23.51;32.73;101021.91;6177749;23;20426;-61
2023/05/24 07:30:39;;;;;;;;;;;;;;;23.33;33.21;101023.19;6180368;23;20241;-61
2023/05/24 07:33:05;;;;;;;;;;;;;;;23.44;33.20;101020.47;6154347;23;19909;-62
2023/05/24 07:35:30;;;;;;;;;;;;;;;23.31;33.88;101016.28;6182233;23;20249;-60
2023/05/24 07:37:55;;;;;;;;;;;;;;;23.38;33.37;101019.63;6180620;23;19959;-60
2023/05/24 07:40:22;;;;;;;;;;;;;;;23.30;33.91;101011.91;6182261;23;19923;-60
2023/05/24 07:42:47;;;;;;;;;;;;;;;23.23;33.61;101014.88;6155320;23;19912;-60
2023/05/24 07:45:13;;;;;;;;;;;;;;;23.31;33.60;101017.16;6180630;23;19908;-61
2023/05/24 07:47:39;;;;;;;;;;;;;;;23.30;33.75;101018.22;6183307;23;19962;-60
2023/05/24 07:50:05;;;;;;;;;;;;;;;23.42;33.56;101018.03;6181846;23;19912;-61
2023/05/24 07:52:30;;;;;;;;;;;;;;;23.49;33.68;101021.34;6182033;23;19908;-61
2023/05/24 07:54:55;;;;;;;;;;;;;;;23.53;33.68;101019.72;6179699;23;19912;-61
2023/05/24 07:57:21;;;;;;;;;;;;;;;23.64;33.60;101023.31;6181532;23;19913;-61
2023/05/24 07:59:47;;;;;;;;;;;;;;;23.70;33.75;101024.16;6179110;23;19908;-61
2023/05/24 08:02:15;;;;;;;;;;;;;;;23.81;33.96;101022.31;6179838;23;19916;-60
2023/05/24 08:04:41;;;;;;;;;;;;;;;23.81;33.06;101030.56;6182081;23;20322;-60
2023/05/24 08:07:06;;;;;;;;;;;;;;;23.85;33.72;101027.03;6180589;23;19938;-59
2023/05/24 08:09:35;;;;;;;;;;;;;;;24.01;33.55;101029.81;6179809;23;19915;-60
2023/05/24 08:12:06;;;;;;;;;;;;;;;24.01;33.07;101025.13;6178628;23;19915;-61
2023/05/24 08:14:31;;;;;;;;;;;;;;;24.18;33.09;101030.38;6153856;23;19919;-61
2023/05/24 08:16:59;;;;;;;;;;;;;;;24.21;33.15;101020.81;6154774;23;19913;-61
2023/05/24 08:19:25;;;;;;;;;;;;;;;24.39;33.31;101023.03;6180067;23;20365;-60
2023/05/24 08:21:50;;;;;;;;;;;;;;;24.43;33.01;101026.06;6180119;23;19958;-60
2023/05/24 08:24:16;;;;;;;;;;;;;;;24.54;33.26;101025.81;6182258;23;19932;-60
2023/05/24 08:26:44;;;;;;;;;;;;;;;24.57;33.26;101027.19;6152785;23;20233;-60
2023/05/24 08:29:09;;;;;;;;;;;;;;;24.51;32.39;101025.50;6181429;23;19983;-59
2023/05/24 08:31:35;;;;;;;;;;;;;;;24.51;32.40;101028.25;6181541;23;20063;-60
2023/05/24 08:34:01;;;;;;;;;;;;;;;24.61;32.61;101024.72;6182771;23;19990;-60
2023/05/24 08:36:26;;;;;;;;;;;;;;;24.69;31.97;101029.69;6183217;23;19943;-59
2023/05/24 08:38:51;;;;;;;;;;;;;;;24.60;31.99;101023.91;6180887;23;20230;-61
2023/05/24 08:41:17;;;;;;;;;;;;;;;24.74;32.08;101021.44;6182762;23;19916;-60
2023/05/24 08:43:45;;;;;;;;;;;;;;;24.77;32.56;101009.88;6181430;23;19912;-60
2023/05/24 08:46:11;;;;;;;;;;;;;;;24.78;31.05;101005.22;6182185;23;19943;-61
2023/05/24 08:48:46;;;;;;;;;;;;;;;24.65;30.94;101001.13;6183886;23;20063;-60
2023/05/24 08:51:15;;;;;;;;;;;;;;;24.65;31.32;101001.94;6181385;23;19947;-60
2023/05/24 08:53:47;;;;;;;;;;;;;;;24.87;31.85;101001.66;6182428;23;19912;-60
2023/05/24 08:56:16;;;;;;;;;;;;;;;24.75;30.49;100998.34;6181640;23;19915;-60
2023/05/24 08:58:41;;;;;;;;;;;;;;;24.88;30.60;101000.53;6180651;23;20386;-61
2023/05/24 09:01:07;;;;;;;;;;;;;;;24.96;30.52;101006.56;6182219;23;19939;-59
2023/05/24 09:03:34;;;;;;;;;;;;;;;25.07;30.70;100992.56;6182127;23;19942;-61
2023/05/24 09:06:00;;;;;;;;;;;;;;;25.10;30.41;100983.72;6181875;23;20361;-60
2023/05/24 09:08:27;;;;;;;;;;;;;;;25.27;30.52;100994.44;6182314;23;20217;-61
2023/05/24 09:10:53;;;;;;;;;;;;;;;25.31;30.65;100980.94;6181371;23;19909;-61
2023/05/24 09:13:18;;;;;;;;;;;;;;;25.52;31.05;100976.22;6181852;23;19908;-60
2023/05/24 09:15:43;;;;;;;;;;;;;;;25.78;30.65;100973.31;6152553;23;19915;-59
2023/05/24 09:18:09;;;;;;;;;;;;;;;25.84;30.31;100974.97;6183281;23;21094;-59
2023/05/24 09:20:34;;;;;;;;;;;;;;;26.00;30.17;100973.78;6182222;23;19908;-60
2023/05/24 09:23:01;;;;;;;;;;;;;;;26.18;30.29;100972.28;6181887;23;19974;-59
2023/05/24 09:25:28;;;;;;;;;;;;;;;26.14;29.64;100973.97;6179718;23;19913;-56
2023/05/24 09:27:54;;;;;;;;;;;;;;;26.25;29.96;100969.22;6183451;23;19917;-60
2023/05/24 09:30:20;;;;;;;;;;;;;;;26.45;29.55;100954.47;6158974;23;19974;-59
2023/05/24 09:32:56;;;;;;;;;;;;;;;26.39;28.76;100959.19;6179225;23;19919;-58
2023/05/24 09:35:21;;;;;;;;;;;;;;;26.73;28.89;100960.31;6181485;23;19994;-60
2023/05/24 09:37:47;;;;;;;;;;;;;;;27.12;29.25;100956.59;6181935;23;20306;-60
2023/05/24 09:40:21;;;;;;;;;;;;;;;27.33;28.11;100957.19;6182155;23;20294;-58
2023/05/24 09:42:50;;;;;;;;;;;;;;;27.78;29.28;100952.19;6158383;23;19908;-59
2023/05/24 09:45:15;;;;;;;;;;;;;;;28.03;28.01;100959.31;6182860;23;19912;-59
2023/05/24 09:47:41;;;;;;;;;;;;;;;28.12;26.25;100954.75;6183885;23;20003;-57
2023/05/24 09:50:13;;;;;;;;;;;;;;;28.15;27.74;100945.03;6184994;23;19915;-58
2023/05/24 09:52:40;;;;;;;;;;;;;;;28.38;27.81;100946.06;6182944;23;19969;-60
2023/05/24 09:55:13;;;;;;;;;;;;;;;28.38;26.59;100935.03;6184171;23;19966;-60
2023/05/24 09:57:38;;;;;;;;;;;;;;;28.29;27.67;100932.13;6182853;23;20230;-60
2023/05/24 10:00:07;;;;;;;;;;;;;;;27.97;25.96;100936.50;6185054;23;19908;-58
2023/05/24 10:02:32;;;;;;;;;;;;;;;27.71;26.10;100935.19;6184812;23;19912;-57
2023/05/24 10:04:59;;;;;;;;;;;;;;;27.70;26.55;100936.31;6182910;23;19930;-60
2023/05/24 10:07:25;;;;;;;;;;;;;;;28.00;26.84;100935.88;6184587;23;19924;-60
2023/05/24 10:09:50;;;;;;;;;;;;;;;28.10;26.65;100934.06;6155435;23;19912;-58
2023/05/24 10:12:15;;;;;;;;;;;;;;;28.09;25.84;100938.78;6184416;23;19913;-59
2023/05/24 10:14:41;;;;;;;;;;;;;;;28.21;27.38;100935.53;6184888;23;19923;-59
2023/05/24 10:17:06;;;;;;;;;;;;;;;28.33;26.19;100944.19;6183302;23;20005;-59
2023/05/24 10:19:32;;;;;;;;;;;;;;;28.60;25.91;100937.13;6184506;23;19909;-60
2023/05/24 10:21:58;;;;;;;;;;;;;;;28.81;26.65;100940.34;6183450;23;20011;-61
2023/05/24 10:24:25;;;;;;;;;;;;;;;28.99;25.81;100941.38;6184080;23;19912;-61
2023/05/24 10:26:51;;;;;;;;;;;;;;;29.03;25.56;100936.91;6185197;23;19912;-60
2023/05/24 10:29:40;;;;;;;;;;;;;;;29.25;26.57;100938.97;6183571;23;19944;-60
2023/05/24 10:32:07;;;;;;;;;;;;;;;29.20;26.19;100932.69;6181862;23;20006;-60
2023/05/24 10:34:33;;;;;;;;;;;;;;;29.31;26.15;100936.94;6181393;23;19912;-60
2023/05/24 10:36:58;;;;;;;;;;;;;;;29.18;25.11;100941.34;6184456;23;19923;-62
2023/05/24 10:39:23;;;;;;;;;;;;;;;28.80;25.30;100943.41;6182514;23;20241;-60
2023/05/24 10:41:49;;;;;;;;;;;;;;;28.81;25.99;100939.50;6183497;23;19908;-61
2023/05/24 10:44:17;;;;;;;;;;;;;;;28.76;25.54;100930.19;6184355;23;19916;-61
2023/05/24 10:47:02;;;;;;;;;;;;;;;28.81;26.50;100926.53;6182143;23;19908;-62
2023/05/24 10:49:27;;;;;;;;;;;;;;;29.00;26.27;100920.91;6183386;23;19977;-59
2023/05/24 10:52:00;;;;;;;;;;;;;;;29.15;26.69;100915.09;6183622;23;19908;-62
2023/05/24 10:54:28;;;;;;;;;;;;;;;29.37;26.55;100915.50;6182636;23;20283;-60
2023/05/24 10:56:55;;;;;;;;;;;;;;;29.26;26.01;100912.13;6184891;23;19908;-60
2023/05/24 10:59:33;;;;;;;;;;;;;;;29.43;26.44;100914.25;6181755;23;19930;-61
2023/05/24 11:01:59;;;;;;;;;;;;;;;29.35;24.80;100924.09;6184807;23;19908;-60
2023/05/24 11:04:26;;;;;;;;;;;;;;;29.51;26.32;100910.72;6181219;23;20313;-60
2023/05/24 11:06:55;;;;;;;;;;;;;;;29.76;26.65;100911.34;6184165;23;19970;-60
2023/05/24 11:09:21;;;;;;;;;;;;;;;29.87;25.53;100901.66;6182173;23;19908;-59
2023/05/24 11:11:52;;;;;;;;;;;;;;;29.79;25.60;100905.16;6180768;23;20014;-60
2023/05/24 11:14:26;;;;;;;;;;;;;;;29.98;25.96;100896.66;6183957;23;19908;-60
2023/05/24 11:16:51;;;;;;;;;;;;;;;29.72;24.78;100900.03;6181942;23;19935;-60
2023/05/24 11:19:18;;;;;;;;;;;;;;;30.11;25.54;100902.16;6157451;23;20306;-59
2023/05/24 11:21:44;;;;;;;;;;;;;;;29.87;23.94;100908.00;6183011;23;19908;-60
2023/05/24 11:24:10;;;;;;;;;;;;;;;30.32;25.80;100903.59;6180801;23;19913;-61
2023/05/24 11:26:35;;;;;;;;;;;;;;;30.68;25.13;100892.41;6155325;23;19908;-60
2023/05/24 11:29:02;;;;;;;;;;;;;;;30.84;24.74;100890.03;6182471;23;20588;-61
2023/05/24 11:31:28;;;;;;;;;;;;;;;30.60;24.25;100888.44;6182522;23;19918;-61
2023/05/24 11:33:53;;;;;;;;;;;;;;;30.66;25.19;100878.88;6184278;23;20298;-60
2023/05/24 11:36:19;;;;;;;;;;;;;;;30.35;23.70;100887.19;6179748;23;20306;-61
2023/05/24 11:38:46;;;;;;;;;;;;;;;30.50;24.77;100899.84;6180531;23;19922;-60
2023/05/24 11:41:11;;;;;;;;;;;;;;;30.18;24.46;100878.72;6182238;23;19919;-59
2023/05/24 11:43:37;;;;;;;;;;;;;;;30.44;24.24;100878.91;6184206;23;19908;-60
2023/05/24 11:46:02;;;;;;;;;;;;;;;30.66;24.85;100889.97;6183848;23;19912;-62
2023/05/24 11:48:28;;;;;;;;;;;;;;;30.51;24.02;100884.00;6181188;23;19916;-60
2023/05/24 11:50:53;;;;;;;;;;;;;;;30.51;24.63;100868.19;6182740;23;20301;-58
2023/05/24 11:53:19;;;;;;;;;;;;;;;30.41;23.32;100869.28;6182065;23;19940;-60
2023/05/24 11:55:45;;;;;;;;;;;;;;;30.60;24.62;100869.03;6183279;23;20015;-60
2023/05/24 11:58:18;;;;;;;;;;;;;;;30.45;23.87;100872.25;6182409;23;19952;-61
2023/05/24 12:00:44;;;;;;;;;;;;;;;30.26;24.53;100878.78;6182663;23;19939;-62
2023/05/24 12:03:09;;;;;;;;;;;;;;;30.51;24.56;100870.16;6182235;23;19971;-60
2023/05/24 12:05:36;;;;;;;;;;;;;;;30.56;24.60;100854.19;6181289;23;19908;-61
2023/05/24 12:08:08;;;;;;;;;;;;;;;30.73;24.64;100859.00;6156224;23;19920;-61
2023/05/24 12:10:34;;;;;;;;;;;;;;;30.84;24.24;100856.75;6183652;23;19991;-60
2023/05/24 12:13:01;;;;;;;;;;;;;;;31.00;24.28;100852.44;6181779;23;19927;-60
2023/05/24 12:15:27;;;;;;;;;;;;;;;31.11;24.55;100844.63;6155864;23;19912;-60
2023/05/24 12:17:53;;;;;;;;;;;;;;;30.95;23.69;100841.47;6182415;23;19915;-60
2023/05/24 12:20:19;;;;;;;;;;;;;;;30.92;23.92;100842.09;6182323;23;19912;-60
2023/05/24 12:22:49;;;;;;;;;;;;;;;30.90;24.44;100851.88;6183479;23;20306;-61
2023/05/24 12:25:19;;;;;;;;;;;;;;;30.82;23.88;100845.16;6180943;23;19986;-60
2023/05/24 12:27:46;;;;;;;;;;;;;;;30.78;24.62;100847.75;6184253;23;20221;-60
2023/05/24 12:30:17;;;;;;;;;;;;;;;30.79;24.82;100837.47;6156578;23;20245;-60
2023/05/24 12:32:42;;;;;;;;;;;;;;;30.86;24.18;100846.16;6157312;23;20425;-60